createdAt,value
2024-01-06T00:01:05.915Z,98215.91
2024-01-06T00:03:09.727Z,98215.91
2024-01-06T00:05:13.071Z,98209.72
2024-01-06T00:07:16.302Z,98213.19
2024-01-06T00:09:19.509Z,98204.97
2024-01-06T00:11:22.596Z,98204.81
2024-01-06T00:13:25.747Z,98203.44
2024-01-06T00:15:28.754Z,98209.91
2024-01-06T00:17:33.259Z,98203.78
2024-01-06T00:19:36.370Z,98207.28
2024-01-06T00:21:39.472Z,98208.22
2024-01-06T00:23:42.830Z,98205.31
2024-01-06T00:25:45.945Z,98207.31
2024-01-06T00:27:49.073Z,98198.59
2024-01-06T00:29:52.308Z,98198.75
2024-01-06T00:31:55.184Z,98199.41
2024-01-06T00:33:59.864Z,98200.72
2024-01-06T00:36:02.944Z,98218.22
2024-01-06T00:38:06.084Z,98211.38
2024-01-06T00:40:10.192Z,98206.22
2024-01-06T00:42:13.391Z,98206.84
2024-01-06T00:44:16.352Z,98212.69
2024-01-06T00:46:19.538Z,98216.16
2024-01-06T00:48:22.738Z,98212.88
2024-01-06T00:50:27.448Z,98219.03
2024-01-06T00:52:30.425Z,98228.22
2024-01-06T00:54:33.485Z,98227.22
2024-01-06T00:56:36.482Z,98237.22
2024-01-06T00:58:39.489Z,98231.94
2024-01-06T01:00:42.668Z,98228.50
2024-01-06T01:02:45.973Z,98226.91
2024-01-06T01:04:49.118Z,98228.84
2024-01-06T01:06:53.793Z,98226.41
2024-01-06T01:08:57.362Z,98224.31
2024-01-06T01:11:00.929Z,98226.72
2024-01-06T01:13:04.042Z,98233.50
2024-01-06T01:15:08.087Z,98237.06
2024-01-06T01:17:11.167Z,98239.50
2024-01-06T01:19:14.405Z,98240.28
2024-01-06T01:21:17.799Z,98238.69
2024-01-06T01:23:22.472Z,98241.75
2024-01-06T01:25:25.436Z,98240.78
2024-01-06T01:27:28.451Z,98244.06
2024-01-06T01:29:31.577Z,98249.00
2024-01-06T01:31:35.943Z,98238.41
2024-01-06T01:33:39.128Z,98244.06
2024-01-06T01:35:42.395Z,98239.22
2024-01-06T01:37:45.417Z,98236.72
2024-01-06T01:39:49.943Z,98233.44
2024-01-06T01:41:52.947Z,98235.28
2024-01-06T01:43:59.764Z,98222.81
2024-01-06T01:46:03.095Z,98233.19
2024-01-06T01:48:07.348Z,98227.28
2024-01-06T01:50:11.593Z,98223.00
2024-01-06T01:52:15.210Z,98217.94
2024-01-06T01:54:18.341Z,98220.09
2024-01-06T01:56:23.268Z,98220.69
2024-01-06T01:58:26.552Z,98214.56
2024-01-06T02:00:30.055Z,98216.19
2024-01-06T02:02:33.870Z,98216.25
2024-01-06T02:04:37.238Z,98218.78
2024-01-06T02:06:40.156Z,98219.47
2024-01-06T02:08:43.448Z,98219.41
2024-01-06T02:10:46.557Z,98221.63
2024-01-06T02:12:53.147Z,98215.09
2024-01-06T02:14:56.380Z,98210.16
2024-01-06T02:16:59.697Z,98215.50
2024-01-06T02:19:02.800Z,98215.94
2024-01-06T02:21:08.204Z,98206.59
2024-01-06T02:23:12.724Z,98217.13
2024-01-06T02:25:15.959Z,98216.81
2024-01-06T02:27:19.154Z,98211.75
2024-01-06T02:29:22.236Z,98202.38
2024-01-06T02:31:25.243Z,98211.97
2024-01-06T02:33:28.475Z,98203.59
2024-01-06T02:35:31.686Z,98200.06
2024-01-06T02:37:34.721Z,98194.75
2024-01-06T02:39:39.363Z,98189.19
2024-01-06T02:41:42.523Z,98184.28
2024-01-06T02:43:45.548Z,98188.81
2024-01-06T02:45:48.864Z,98187.22
2024-01-06T02:47:52.302Z,98199.75
2024-01-06T02:49:55.463Z,98193.91
2024-01-06T02:51:58.609Z,98188.63
2024-01-06T02:54:01.820Z,98190.03
2024-01-06T02:56:11.625Z,98185.34
2024-01-06T02:58:14.717Z,98191.97
2024-01-06T03:00:18.383Z,98187.94
2024-01-06T03:02:21.484Z,98193.09
2024-01-06T03:04:24.522Z,98197.63
2024-01-06T03:06:28.728Z,98196.84
2024-01-06T03:08:32.554Z,98204.97
2024-01-06T03:10:35.921Z,98203.38
2024-01-06T03:12:40.847Z,98205.28
2024-01-06T03:14:43.960Z,98197.13
2024-01-06T03:16:46.873Z,98193.66
2024-01-06T03:18:50.791Z,98199.78
2024-01-06T03:20:53.827Z,98201.84
2024-01-06T03:22:57.069Z,98196.56
2024-01-06T03:25:00.210Z,98198.75
2024-01-06T03:27:04.075Z,98188.91
2024-01-06T03:29:08.663Z,98204.03
2024-01-06T03:31:11.996Z,98200.19
2024-01-06T03:33:15.154Z,98207.53
2024-01-06T03:35:18.360Z,98207.78
2024-01-06T03:37:21.387Z,98200.25
2024-01-06T03:39:24.498Z,98211.28
2024-01-06T03:41:27.679Z,98203.28
2024-01-06T03:43:30.829Z,98205.34
2024-01-06T03:45:35.340Z,98194.53
2024-01-06T03:47:38.549Z,98206.13
2024-01-06T03:49:41.897Z,98210.22
2024-01-06T03:51:45.133Z,98204.31
2024-01-06T03:53:48.158Z,98210.25
2024-01-06T03:55:51.270Z,98205.69
2024-01-06T03:57:54.355Z,98203.69
2024-01-06T03:59:57.434Z,98206.81
2024-01-06T04:02:02.006Z,98207.38
2024-01-06T04:04:05.429Z,98210.25
2024-01-06T04:06:08.764Z,98212.53
2024-01-06T04:08:11.797Z,98212.94
2024-01-06T04:10:14.847Z,98206.81
2024-01-06T04:12:18.516Z,98207.66
2024-01-06T04:14:21.454Z,98217.22
2024-01-06T04:16:24.639Z,98220.47
2024-01-06T04:18:29.282Z,98218.03
2024-01-06T04:20:32.636Z,98212.53
2024-01-06T04:22:35.851Z,98219.50
2024-01-06T04:24:39.854Z,98216.66
2024-01-06T04:26:46.362Z,98205.06
2024-01-06T04:28:49.445Z,98214.63
2024-01-06T04:30:54.222Z,98219.91
2024-01-06T04:32:58.927Z,98222.38
2024-01-06T04:35:04.423Z,98211.16
2024-01-06T04:37:07.054Z,98217.06
2024-01-06T04:39:10.034Z,98218.91
2024-01-06T04:41:13.152Z,98218.09
2024-01-06T04:43:16.100Z,98217.84
2024-01-06T04:45:20.987Z,98221.94
2024-01-06T04:47:24.893Z,98224.78
2024-01-06T04:49:27.998Z,98222.75
2024-01-06T04:51:32.586Z,98222.72
2024-01-06T04:53:35.623Z,98219.63
2024-01-06T04:55:38.652Z,98219.28
2024-01-06T04:57:41.964Z,98222.34
2024-01-06T04:59:44.938Z,98216.66
2024-01-06T05:01:47.954Z,98225.41
2024-01-06T05:03:51.101Z,98216.66
2024-01-06T05:05:54.141Z,98217.41
2024-01-06T05:07:59.759Z,98217.63
2024-01-06T05:10:03.700Z,98220.31
2024-01-06T05:12:07.047Z,98220.94
2024-01-06T05:14:10.173Z,98228.69
2024-01-06T05:16:13.278Z,98227.66
2024-01-06T05:18:16.491Z,98224.00
2024-01-06T05:20:19.772Z,98228.28
2024-01-06T05:22:22.900Z,98224.22
2024-01-06T05:24:27.347Z,98230.06
2024-01-06T05:26:30.905Z,98232.53
2024-01-06T05:28:33.874Z,98227.66
2024-01-06T05:30:37.297Z,98235.19
2024-01-06T05:32:40.526Z,98228.88
2024-01-06T05:34:43.769Z,98243.16
2024-01-06T05:36:47.208Z,98242.97
2024-01-06T05:38:53.256Z,98241.78
2024-01-06T05:40:58.220Z,98256.84
2024-01-06T05:43:01.329Z,98251.97
2024-01-06T05:45:04.698Z,98242.00
2024-01-06T05:47:08.126Z,98248.94
2024-01-06T05:49:11.954Z,98252.22
2024-01-06T05:51:14.996Z,98246.28
2024-01-06T05:53:19.871Z,98252.38
2024-01-06T05:55:23.686Z,98251.38
2024-01-06T05:57:28.300Z,98249.16
2024-01-06T05:59:34.525Z,98250.38
2024-01-06T06:01:37.709Z,98250.56
2024-01-06T06:03:41.351Z,98242.41
2024-01-06T06:05:44.703Z,98251.38
2024-01-06T06:07:48.075Z,98246.09
2024-01-06T06:09:51.151Z,98256.28
2024-01-06T06:11:54.249Z,98258.31
2024-01-06T06:13:58.657Z,98264.06
2024-01-06T06:16:01.813Z,98266.25
2024-01-06T06:18:05.513Z,98261.41
2024-01-06T06:20:09.242Z,98273.41
2024-01-06T06:22:12.189Z,98270.53
2024-01-06T06:24:15.311Z,98267.69
2024-01-06T06:26:18.420Z,98265.47
2024-01-06T06:28:21.691Z,98270.91
2024-01-06T06:30:26.353Z,98272.56
2024-01-06T06:32:29.697Z,98269.72
2024-01-06T06:34:33.108Z,98274.81
2024-01-06T06:36:36.475Z,98275.44
2024-01-06T06:38:39.618Z,98280.38
2024-01-06T06:40:43.142Z,98276.69
2024-01-06T06:42:46.277Z,98279.97
2024-01-06T06:44:49.508Z,98284.28
2024-01-06T06:46:54.006Z,98284.91
2024-01-06T06:48:57.237Z,98294.47
2024-01-06T06:51:00.416Z,98290.19
2024-01-06T06:53:03.761Z,98297.94
2024-01-06T06:55:08.354Z,98294.47
2024-01-06T06:57:11.507Z,98290.63
2024-01-06T06:59:14.915Z,98298.56
2024-01-06T07:01:18.621Z,98293.06
2024-01-06T07:03:23.347Z,98303.25
2024-01-06T07:05:26.481Z,98300.59
2024-01-06T07:07:29.827Z,98302.03
2024-01-06T07:09:32.851Z,98299.19
2024-01-06T07:11:35.985Z,98311.19
2024-01-06T07:13:39.202Z,98309.00
2024-01-06T07:15:42.790Z,98315.94
2024-01-06T07:17:46.475Z,98320.41
2024-01-06T07:19:52.075Z,98313.28
2024-01-06T07:21:55.157Z,98309.19
2024-01-06T07:23:58.626Z,98309.00
2024-01-06T07:26:01.919Z,98305.94
2024-01-06T07:28:05.384Z,98305.59
2024-01-06T07:30:12.183Z,98309.03
2024-01-06T07:32:15.503Z,98310.47
2024-01-06T07:34:18.670Z,98316.59
2024-01-06T07:36:23.968Z,98316.41
2024-01-06T07:38:27.116Z,98313.31
2024-01-06T07:40:30.279Z,98325.78
2024-01-06T07:42:33.426Z,98316.00
2024-01-06T07:44:36.612Z,98325.19
2024-01-06T07:46:41.584Z,98327.25
2024-01-06T07:48:44.901Z,98323.00
2024-01-06T07:50:48.221Z,98330.13
2024-01-06T07:52:53.126Z,98330.75
2024-01-06T07:54:56.892Z,98334.84
2024-01-06T07:57:00.711Z,98332.25
2024-01-06T07:59:03.913Z,98327.59
2024-01-06T08:01:07.048Z,98332.94
2024-01-06T08:03:10.317Z,98332.53
2024-01-06T08:05:13.272Z,98343.75
2024-01-06T08:07:16.433Z,98330.50
2024-01-06T08:09:20.995Z,98336.25
2024-01-06T08:11:24.094Z,98347.25
2024-01-06T08:13:27.011Z,98339.50
2024-01-06T08:15:30.110Z,98346.84
2024-01-06T08:17:33.377Z,98347.66
2024-01-06T08:19:37.436Z,98354.59
2024-01-06T08:21:40.573Z,98363.56
2024-01-06T08:23:43.708Z,98356.22
2024-01-06T08:25:48.280Z,98356.06
2024-01-06T08:27:51.386Z,98357.91
2024-01-06T08:29:54.425Z,98364.47
2024-01-06T08:31:58.034Z,98364.25
2024-01-06T08:34:01.259Z,98362.22
2024-01-06T08:36:05.020Z,98370.97
2024-01-06T08:38:08.197Z,98364.25
2024-01-06T08:40:12.240Z,98376.31
2024-01-06T08:42:16.708Z,98377.56
2024-01-06T08:44:19.780Z,98383.69
2024-01-06T08:46:23.299Z,98381.47
2024-01-06T08:48:26.521Z,98381.22
2024-01-06T08:50:29.529Z,98377.78
2024-01-06T08:52:32.879Z,98383.06
2024-01-06T08:54:36.495Z,98383.31
2024-01-06T08:56:39.818Z,98382.69
2024-01-06T08:58:44.360Z,98380.06
2024-01-06T09:00:47.503Z,98387.25
2024-01-06T09:02:50.915Z,98395.81
2024-01-06T09:04:54.094Z,98396.03
2024-01-06T09:06:57.077Z,98402.56
2024-01-06T09:09:00.166Z,98397.06
2024-01-06T09:11:03.182Z,98403.59
2024-01-06T09:13:06.358Z,98401.38
2024-01-06T09:15:11.282Z,98399.94
2024-01-06T09:17:15.053Z,98407.53
2024-01-06T09:19:18.282Z,98408.75
2024-01-06T09:21:21.629Z,98406.31
2024-01-06T09:23:25.587Z,98416.13
2024-01-06T09:25:28.731Z,98413.09
2024-01-06T09:27:31.829Z,98416.53
2024-01-06T09:29:35.376Z,98417.16
2024-01-06T09:31:40.579Z,98415.91
2024-01-06T09:33:43.612Z,98417.56
2024-01-06T09:35:46.681Z,98416.16
2024-01-06T09:37:50.117Z,98415.97
2024-01-06T09:39:53.108Z,98412.06
2024-01-06T09:41:56.252Z,98415.94
2024-01-06T09:43:59.306Z,98415.75
2024-01-06T09:46:08.860Z,98417.41
2024-01-06T09:48:15.130Z,98415.13
2024-01-06T09:50:20.888Z,98415.38
2024-01-06T09:52:24.614Z,98417.41
2024-01-06T09:54:35.294Z,98420.06
2024-01-06T09:56:38.707Z,98418.59
2024-01-06T09:58:42.757Z,98413.50
2024-01-06T10:00:45.934Z,98423.13
2024-01-06T10:02:50.446Z,98418.63
2024-01-06T10:04:55.181Z,98416.97
2024-01-06T10:06:58.367Z,98414.53
2024-01-06T10:09:01.656Z,98419.25
2024-01-06T10:11:05.030Z,98415.56
2024-01-06T10:13:08.391Z,98423.13
2024-01-06T10:15:13.846Z,98418.00
2024-01-06T10:17:17.505Z,98415.75
2024-01-06T10:19:21.380Z,98422.06
2024-01-06T10:21:27.211Z,98411.66
2024-01-06T10:23:31.057Z,98412.88
2024-01-06T10:25:34.367Z,98410.22
2024-01-06T10:27:38.197Z,98418.81
2024-01-06T10:29:41.721Z,98414.50
2024-01-06T10:31:45.014Z,98408.16
2024-01-06T10:33:48.372Z,98406.91
2024-01-06T10:35:51.805Z,98404.88
2024-01-06T10:37:56.346Z,98410.63
2024-01-06T10:40:13.902Z,98405.91
2024-01-06T10:42:17.689Z,98405.91
2024-01-06T10:44:22.496Z,98402.84
2024-01-06T10:46:26.834Z,98396.50
2024-01-06T10:48:33.488Z,98401.41
2024-01-06T10:50:36.723Z,98404.44
2024-01-06T10:52:40.660Z,98410.81
2024-01-06T10:54:46.588Z,98403.66
2024-01-06T10:56:52.994Z,98408.56
2024-01-06T10:58:58.056Z,98407.78
2024-01-06T11:01:01.704Z,98411.66
2024-01-06T11:03:06.862Z,98411.84
2024-01-06T11:05:12.106Z,98416.16
2024-01-06T11:07:17.135Z,98403.06
2024-01-06T11:09:24.377Z,98398.16
2024-01-06T11:11:29.753Z,98408.38
2024-01-06T11:13:32.809Z,98406.34
2024-01-06T11:15:43.296Z,98402.44
2024-01-06T11:17:57.382Z,98404.06
2024-01-06T11:20:07.891Z,98397.31
2024-01-06T11:22:29.901Z,98404.03
2024-01-06T11:24:38.968Z,98400.78
2024-01-06T11:26:44.681Z,98396.88
2024-01-06T11:28:47.932Z,98390.75
2024-01-06T11:31:08.381Z,98386.25
2024-01-06T11:33:12.146Z,98396.06
2024-01-06T11:35:16.430Z,98391.34
2024-01-06T11:37:21.948Z,98389.50
2024-01-06T11:39:37.852Z,98392.75
2024-01-06T11:41:51.393Z,98393.19
2024-01-06T11:43:55.079Z,98385.00
2024-01-06T11:46:02.292Z,98383.78
2024-01-06T11:48:07.617Z,98387.47
2024-01-06T11:50:11.601Z,98390.31
2024-01-06T11:52:15.782Z,98391.97
2024-01-06T11:54:20.054Z,98387.25
2024-01-06T11:56:26.301Z,98389.50
2024-01-06T11:58:30.823Z,98399.72
2024-01-06T12:00:34.359Z,98387.69
2024-01-06T12:02:37.384Z,98393.84
2024-01-06T12:04:42.513Z,98399.75
2024-01-06T12:06:45.712Z,98399.59
2024-01-06T12:08:49.347Z,98396.28
2024-01-06T12:10:52.387Z,98399.38
2024-01-06T12:13:02.401Z,98403.66
2024-01-06T12:15:10.336Z,98391.81
2024-01-06T12:17:14.792Z,98409.22
2024-01-06T12:19:17.916Z,98404.06
2024-01-06T12:21:21.105Z,98403.06
2024-01-06T12:23:29.249Z,98397.31
2024-01-06T12:25:38.451Z,98398.34
2024-01-06T12:27:44.337Z,98406.94
2024-01-06T12:29:47.450Z,98409.38
2024-01-06T12:31:52.434Z,98416.97
2024-01-06T12:33:55.988Z,98414.94
2024-01-06T12:36:03.429Z,98408.56
2024-01-06T12:38:11.362Z,98411.84
2024-01-06T12:40:18.450Z,98414.53
2024-01-06T12:42:23.664Z,98412.06
2024-01-06T12:44:26.804Z,98422.66
2024-01-06T12:46:29.949Z,98414.50
2024-01-06T12:48:34.666Z,98429.22
2024-01-06T12:50:37.775Z,98421.69
2024-01-06T12:52:41.143Z,98429.44
2024-01-06T12:54:47.462Z,98424.75
2024-01-06T12:56:51.228Z,98428.63
2024-01-06T12:58:54.658Z,98428.22
2024-01-06T13:00:58.489Z,98422.69
2024-01-06T13:03:01.638Z,98428.44
2024-01-06T13:05:06.708Z,98427.63
2024-01-06T13:07:09.917Z,98424.97
2024-01-06T13:09:17.965Z,98429.84
2024-01-06T13:11:21.734Z,98426.81
2024-01-06T13:13:24.804Z,98429.03
2024-01-06T13:15:28.038Z,98428.84
2024-01-06T13:17:31.230Z,98431.91
2024-01-06T13:19:35.566Z,98438.84
2024-01-06T13:21:40.921Z,98440.50
2024-01-06T13:23:44.146Z,98431.28
2024-01-06T13:25:47.342Z,98439.88
2024-01-06T13:27:50.517Z,98449.28
2024-01-06T13:29:53.584Z,98450.13
2024-01-06T13:31:56.982Z,98456.22
2024-01-06T13:34:00.122Z,98459.31
2024-01-06T13:36:03.288Z,98458.88
2024-01-06T13:38:07.789Z,98461.75
2024-01-06T13:40:11.985Z,98460.09
2024-01-06T13:42:16.408Z,98455.41
2024-01-06T13:44:20.813Z,98459.06
2024-01-06T13:46:23.858Z,98451.53
2024-01-06T13:48:27.013Z,98451.09
2024-01-06T13:50:30.218Z,98457.84
2024-01-06T13:52:33.331Z,98456.59
2024-01-06T13:54:37.849Z,98457.63
2024-01-06T13:56:41.054Z,98456.63
2024-01-06T13:58:44.088Z,98456.41
2024-01-06T14:00:47.632Z,98456.38
2024-01-06T14:02:50.799Z,98464.16
2024-01-06T14:04:54.138Z,98466.34
2024-01-06T14:07:00.217Z,98472.88
2024-01-06T14:09:07.076Z,98478.81
2024-01-06T14:11:11.558Z,98478.63
2024-01-06T14:13:14.651Z,98475.28
2024-01-06T14:15:17.934Z,98476.94
2024-01-06T14:17:21.040Z,98474.25
2024-01-06T14:19:25.296Z,98480.59
2024-01-06T14:21:29.660Z,98482.63
2024-01-06T14:23:34.084Z,98477.31
2024-01-06T14:25:37.351Z,98474.88
2024-01-06T14:27:41.970Z,98477.50
2024-01-06T14:29:45.212Z,98482.81
2024-01-06T14:31:48.401Z,98487.91
2024-01-06T14:33:51.606Z,98488.88
2024-01-06T14:35:54.984Z,98491.91
2024-01-06T14:37:58.404Z,98498.88
2024-01-06T14:40:06.577Z,98498.94
2024-01-06T14:42:11.032Z,98496.28
2024-01-06T14:44:15.636Z,98495.41
2024-01-06T14:46:20.135Z,98497.22
2024-01-06T14:48:23.624Z,98494.81
2024-01-06T14:50:26.896Z,98493.00
2024-01-06T14:52:29.885Z,98498.09
2024-01-06T14:54:34.810Z,98501.34
2024-01-06T14:56:42.721Z,98495.81
2024-01-06T14:58:46.917Z,98501.31
2024-01-06T15:00:51.731Z,98496.53
2024-01-06T15:02:54.800Z,98506.09
2024-01-06T15:04:58.041Z,98512.31
2024-01-06T15:07:02.032Z,98515.53
2024-01-06T15:09:05.119Z,98514.75
2024-01-06T15:11:09.728Z,98513.09
2024-01-06T15:13:12.791Z,98525.09
2024-01-06T15:15:16.126Z,98521.03
2024-01-06T15:17:20.719Z,98526.78
2024-01-06T15:19:29.098Z,98523.69
2024-01-06T15:21:35.287Z,98522.44
2024-01-06T15:23:38.468Z,98525.72
2024-01-06T15:25:43.626Z,98531.44
2024-01-06T15:27:48.926Z,98531.22
2024-01-06T15:29:52.040Z,98533.25
2024-01-06T15:31:58.589Z,98536.31
2024-01-06T15:34:03.466Z,98537.13
2024-01-06T15:36:07.118Z,98533.66
2024-01-06T15:38:10.069Z,98549.72
2024-01-06T15:40:13.303Z,98541.09
2024-01-06T15:42:16.512Z,98545.81
2024-01-06T15:44:19.844Z,98540.84
2024-01-06T15:46:23.199Z,98551.31
2024-01-06T15:48:26.658Z,98551.34
2024-01-06T15:50:31.812Z,98547.84
2024-01-06T15:52:35.290Z,98552.72
2024-01-06T15:54:38.310Z,98557.81
2024-01-06T15:56:41.506Z,98551.59
2024-01-06T15:58:44.564Z,98545.47
2024-01-06T16:00:47.950Z,98550.41
2024-01-06T16:02:52.040Z,98549.19
2024-01-06T16:04:56.130Z,98558.81
2024-01-06T16:07:00.725Z,98549.66
2024-01-06T16:09:07.218Z,98556.97
2024-01-06T16:11:12.572Z,98546.69
2024-01-06T16:13:16.045Z,98555.28
2024-01-06T16:15:21.724Z,98550.63
2024-01-06T16:17:24.915Z,98548.91
2024-01-06T16:19:28.645Z,98550.75
2024-01-06T16:21:32.742Z,98550.75
2024-01-06T16:23:37.366Z,98554.22
2024-01-06T16:25:40.570Z,98556.75
2024-01-06T16:27:44.007Z,98559.84
2024-01-06T16:29:47.681Z,98559.59
2024-01-06T16:31:51.069Z,98561.97
2024-01-06T16:33:54.315Z,98561.84
2024-01-06T16:35:58.902Z,98560.03
2024-01-06T16:38:02.997Z,98567.91
2024-01-06T16:40:12.105Z,98555.09
2024-01-06T16:42:15.378Z,98559.75
2024-01-06T16:44:19.553Z,98563.00
2024-01-06T16:46:22.554Z,98564.13
2024-01-06T16:48:25.646Z,98561.03
2024-01-06T16:50:29.006Z,98565.56
2024-01-06T16:52:31.931Z,98572.31
2024-01-06T16:54:35.022Z,98568.72
2024-01-06T16:56:39.657Z,98575.47
2024-01-06T16:58:44.487Z,98565.13
2024-01-06T17:00:47.661Z,98574.47
2024-01-06T17:02:50.763Z,98574.22
2024-01-06T17:04:54.009Z,98572.22
2024-01-06T17:06:58.706Z,98579.44
2024-01-06T17:09:01.843Z,98584.94
2024-01-06T17:11:05.562Z,98583.66
2024-01-06T17:13:09.998Z,98584.94
2024-01-06T17:15:15.069Z,98583.75
2024-01-06T17:17:18.282Z,98581.75
2024-01-06T17:19:21.434Z,98584.88
2024-01-06T17:21:24.452Z,98583.13
2024-01-06T17:23:27.481Z,98588.63
2024-01-06T17:25:30.449Z,98591.06
2024-01-06T17:27:33.500Z,98591.72
2024-01-06T17:29:38.250Z,98594.78
2024-01-06T17:31:41.595Z,98602.19
2024-01-06T17:33:44.709Z,98592.44
2024-01-06T17:35:48.750Z,98603.38
2024-01-06T17:37:51.771Z,98595.63
2024-01-06T17:39:54.897Z,98591.16
2024-01-06T17:42:00.391Z,98598.28
2024-01-06T17:44:04.486Z,98599.53
2024-01-06T17:46:09.495Z,98598.09
2024-01-06T17:48:12.732Z,98599.25
2024-01-06T17:50:15.764Z,98595.00
2024-01-06T17:52:19.358Z,98597.53
2024-01-06T17:54:22.414Z,98601.84
2024-01-06T17:56:25.856Z,98600.19
2024-01-06T17:58:28.845Z,98601.56
2024-01-06T18:00:32.948Z,98611.63
2024-01-06T18:02:39.000Z,98607.34
2024-01-06T18:04:43.236Z,98605.88
2024-01-06T18:06:46.529Z,98610.72
2024-01-06T18:08:49.881Z,98606.69
2024-01-06T18:10:52.868Z,98610.72
2024-01-06T18:12:55.947Z,98616.47
2024-01-06T18:14:59.656Z,98610.38
2024-01-06T18:17:02.707Z,98625.16
2024-01-06T18:19:07.733Z,98609.59
2024-01-06T18:21:11.467Z,98620.84
2024-01-06T18:23:14.750Z,98618.47
2024-01-06T18:25:17.934Z,98620.47
2024-01-06T18:27:21.007Z,98616.84
2024-01-06T18:29:24.360Z,98618.22
2024-01-06T18:31:27.660Z,98617.69
2024-01-06T18:33:31.170Z,98618.31
2024-01-06T18:35:35.869Z,98623.03
2024-01-06T18:37:38.874Z,98612.25
2024-01-06T18:39:42.032Z,98624.78
2024-01-06T18:41:45.208Z,98633.06
2024-01-06T18:43:48.213Z,98627.06
2024-01-06T18:45:51.350Z,98625.31
2024-01-06T18:47:54.416Z,98631.25
2024-01-06T18:49:57.899Z,98627.25
2024-01-06T18:52:02.982Z,98620.78
2024-01-06T18:54:06.631Z,98630.97
2024-01-06T18:56:12.390Z,98630.63
2024-01-06T18:58:15.500Z,98634.63
2024-01-06T19:00:20.895Z,98638.84
2024-01-06T19:02:24.295Z,98630.34
2024-01-06T19:04:27.294Z,98632.44
2024-01-06T19:06:31.900Z,98631.78
2024-01-06T19:08:36.332Z,98624.75
2024-01-06T19:10:39.395Z,98631.44
2024-01-06T19:12:42.875Z,98633.72
2024-01-06T19:14:47.252Z,98631.63
2024-01-06T19:16:50.364Z,98634.44
2024-01-06T19:18:53.480Z,98638.19
2024-01-06T19:20:56.468Z,98636.34
2024-01-06T19:23:06.709Z,98638.91
2024-01-06T19:25:14.294Z,98627.88
2024-01-06T19:27:17.871Z,98638.81
2024-01-06T19:29:20.882Z,98635.97
2024-01-06T19:31:24.115Z,98639.56
2024-01-06T19:33:27.598Z,98633.38
2024-01-06T19:35:33.064Z,98640.53
2024-01-06T19:37:36.322Z,98640.47
2024-01-06T19:39:39.679Z,98639.81
2024-01-06T19:41:44.225Z,98638.16
2024-01-06T19:43:47.303Z,98639.81
2024-01-06T19:45:55.498Z,98639.25
2024-01-06T19:47:58.942Z,98642.53
2024-01-06T19:50:03.205Z,98636.53
2024-01-06T19:52:07.265Z,98638.69
2024-01-06T19:54:11.983Z,98643.75
2024-01-06T19:56:16.572Z,98650.81
2024-01-06T19:58:21.102Z,98651.75
2024-01-06T20:00:26.158Z,98649.19
2024-01-06T20:02:29.066Z,98646.38
2024-01-06T20:04:32.162Z,98652.81
2024-01-06T20:06:35.990Z,98652.19
2024-01-06T20:08:39.050Z,98646.25
2024-01-06T20:10:42.293Z,98645.06
2024-01-06T20:12:45.500Z,98649.84
2024-01-06T20:14:50.027Z,98641.06
2024-01-06T20:16:54.482Z,98644.22
2024-01-06T20:18:58.117Z,98646.03
2024-01-06T20:21:03.751Z,98647.06
2024-01-06T20:23:06.293Z,98644.66
2024-01-06T20:25:10.470Z,98650.94
2024-01-06T20:27:14.546Z,98647.75
2024-01-06T20:29:17.617Z,98645.41
2024-01-06T20:31:22.261Z,98642.88
2024-01-06T20:33:27.304Z,98648.59
2024-01-06T20:35:30.707Z,98644.34
2024-01-06T20:37:33.847Z,98645.13
2024-01-06T20:39:42.826Z,98646.47
2024-01-06T20:41:46.692Z,98650.25
2024-01-06T20:43:50.105Z,98651.16
2024-01-06T20:45:54.897Z,98652.28
2024-01-06T20:47:59.390Z,98656.47
2024-01-06T20:50:02.549Z,98663.22
2024-01-06T20:52:06.505Z,98668.84
2024-01-06T20:54:10.077Z,98666.38
2024-01-06T20:56:14.780Z,98670.38
2024-01-06T20:58:17.882Z,98668.91
2024-01-06T21:00:21.546Z,98670.25
2024-01-06T21:02:24.794Z,98668.31
2024-01-06T21:04:29.286Z,98662.78
2024-01-06T21:06:32.361Z,98670.88
2024-01-06T21:08:35.382Z,98673.19
2024-01-06T21:10:38.695Z,98670.97
2024-01-06T21:12:41.832Z,98673.94
2024-01-06T21:14:45.102Z,98677.81
2024-01-06T21:16:48.156Z,98677.81
2024-01-06T21:18:51.423Z,98676.16
2024-01-06T21:20:56.257Z,98681.13
2024-01-06T21:22:59.517Z,98679.03
2024-01-06T21:25:04.612Z,98679.69
2024-01-06T21:27:07.874Z,98680.31
2024-01-06T21:29:11.817Z,98685.97
2024-01-06T21:31:16.503Z,98682.53
2024-01-06T21:33:19.798Z,98683.84
2024-01-06T21:35:22.935Z,98685.34
2024-01-06T21:37:29.389Z,98685.47
2024-01-06T21:39:32.600Z,98680.41
2024-01-06T21:41:35.552Z,98682.69
2024-01-06T21:43:38.711Z,98685.59
2024-01-06T21:45:42.066Z,98686.25
2024-01-06T21:47:45.210Z,98690.72
2024-01-06T21:49:48.315Z,98686.00
2024-01-06T21:51:52.728Z,98692.22
2024-01-06T21:53:58.003Z,98698.81
2024-01-06T21:56:01.214Z,98691.06
2024-01-06T21:58:04.712Z,98701.75
2024-01-06T22:00:13.755Z,98705.56
2024-01-06T22:02:16.721Z,98699.88
2024-01-06T22:04:19.816Z,98705.25
2024-01-06T22:06:22.902Z,98702.31
2024-01-06T22:08:26.017Z,98703.28
2024-01-06T22:10:34.140Z,98703.91
2024-01-06T22:12:37.482Z,98697.81
2024-01-06T22:14:40.596Z,98698.34
2024-01-06T22:16:43.903Z,98709.56
2024-01-06T22:18:46.958Z,98703.16
2024-01-06T22:20:50.206Z,98704.09
2024-01-06T22:22:53.439Z,98704.66
2024-01-06T22:24:56.635Z,98711.19
2024-01-06T22:27:01.076Z,98708.94
2024-01-06T22:29:04.832Z,98708.47
2024-01-06T22:31:08.378Z,98707.84
2024-01-06T22:33:11.715Z,98710.13
2024-01-06T22:35:15.773Z,98705.38
2024-01-06T22:37:18.934Z,98706.53
2024-01-06T22:39:26.641Z,98710.13
2024-01-06T22:41:29.794Z,98707.22
2024-01-06T22:43:34.305Z,98702.97
2024-01-06T22:45:39.577Z,98709.03
2024-01-06T22:47:43.132Z,98707.59
2024-01-06T22:49:46.209Z,98711.84
2024-01-06T22:51:49.144Z,98714.66
2024-01-06T22:53:52.565Z,98714.97
2024-01-06T22:55:55.494Z,98720.28
2024-01-06T22:57:58.661Z,98718.28
2024-01-06T23:00:11.966Z,98727.72
2024-01-06T23:02:15.688Z,98723.09
2024-01-06T23:04:18.835Z,98719.00
2024-01-06T23:06:22.136Z,98724.22
2024-01-06T23:08:25.071Z,98728.06
2024-01-06T23:10:28.064Z,98725.59
2024-01-06T23:12:31.116Z,98721.94
2024-01-06T23:14:34.239Z,98721.97
2024-01-06T23:16:38.878Z,98729.03
2024-01-06T23:18:42.324Z,98721.00
2024-01-06T23:20:45.517Z,98725.28
2024-01-06T23:22:48.742Z,98720.84
2024-01-06T23:24:51.778Z,98721.47
2024-01-06T23:26:54.874Z,98732.22
2024-01-06T23:28:58.001Z,98730.25
2024-01-06T23:31:01.176Z,98735.81
2024-01-06T23:33:06.273Z,98730.22
2024-01-06T23:35:10.099Z,98726.28
2024-01-06T23:37:13.205Z,98732.53
2024-01-06T23:39:16.215Z,98735.50
2024-01-06T23:41:19.480Z,98731.38
2024-01-06T23:43:22.609Z,98723.47
2024-01-06T23:45:26.809Z,98732.25
2024-01-06T23:47:29.889Z,98734.50
2024-01-06T23:49:34.589Z,98737.16
2024-01-06T23:51:37.719Z,98740.97
2024-01-06T23:53:41.095Z,98735.34
2024-01-06T23:55:44.239Z,98736.47
2024-01-06T23:57:48.360Z,98736.19
2024-01-06T23:59:51.331Z,98740.16
